Time;durP1;ratioP1;P1;durP2;ratioP2;P2;SDS_P1;SDS_P2;PMS_P1;PMS_P2;Temp;Humidity;BMP_temperature;BMP_pressure;BME280_temperature;BME280_humidity;BME280_pressure;Samples;Min_cycle;Max_cycle;Signal;HPM_P1;HPM_P2
2024/01/06 00:01:49;;;;;;;9.77;7.27;;;6.50;99.90;;;;;;5074810;28;20246;-47
2024/01/06 00:04:14;;;;;;;12.27;8.07;;;6.50;99.90;;;;;;5056819;28;20269;-47
2024/01/06 00:06:41;;;;;;;11.60;8.53;;;6.50;99.90;;;;;;5074497;28;20168;-47
2024/01/06 00:09:09;;;;;;;11.53;8.40;;;6.50;99.90;;;;;;5074514;28;20714;-46
2024/01/06 00:11:34;;;;;;;11.13;8.33;;;6.50;99.90;;;;;;5074683;28;20308;-48
2024/01/06 00:14:06;;;;;;;12.40;8.17;;;6.50;99.90;;;;;;5056751;28;20176;-46
2024/01/06 00:16:32;;;;;;;11.10;7.97;;;6.50;99.90;;;;;;5075392;28;20214;-48
2024/01/06 00:18:59;;;;;;;13.03;8.33;;;6.50;99.90;;;;;;5074069;28;20192;-47
2024/01/06 00:21:25;;;;;;;11.67;7.83;;;6.50;99.90;;;;;;5073362;28;20208;-47
2024/01/06 00:23:51;;;;;;;13.10;9.13;;;6.50;99.90;;;;;;5074491;28;20176;-47
2024/01/06 00:26:16;;;;;;;11.17;8.83;;;6.50;99.90;;;;;;5056265;28;20179;-47
2024/01/06 00:28:43;;;;;;;12.03;9.00;;;6.50;99.90;;;;;;5056708;28;20171;-47
2024/01/06 00:31:09;;;;;;;16.07;9.77;;;6.60;99.90;;;;;;5074026;28;20200;-48
2024/01/06 00:33:41;;;;;;;15.87;9.20;;;6.50;99.90;;;;;;5074068;28;20184;-47
2024/01/06 00:36:09;;;;;;;18.47;9.07;;;6.60;99.90;;;;;;5074003;28;20171;-47
2024/01/06 00:38:37;;;;;;;12.80;9.10;;;6.60;99.90;;;;;;5056376;28;20194;-47
2024/01/06 00:41:03;;;;;;;14.00;9.77;;;6.50;99.90;;;;;;5074030;28;20199;-47
2024/01/06 00:43:29;;;;;;;15.93;10.27;;;6.50;99.90;;;;;;5073809;28;20705;-48
2024/01/06 00:45:54;;;;;;;19.47;11.03;;;6.60;99.90;;;;;;5073925;28;20168;-47
2024/01/06 00:48:20;;;;;;;17.53;10.37;;;6.50;99.90;;;;;;5073773;28;20176;-47
2024/01/06 00:50:46;;;;;;;16.50;11.57;;;6.50;99.90;;;;;;5073522;28;20240;-48
2024/01/06 00:53:12;;;;;;;15.87;11.37;;;6.60;99.90;;;;;;5073685;28;20187;-47
2024/01/06 00:55:38;;;;;;;16.50;11.03;;;6.60;99.90;;;;;;5056521;28;20262;-46
2024/01/06 00:58:05;;;;;;;23.47;12.37;;;6.60;99.90;;;;;;5073628;28;20640;-47
2024/01/06 01:00:30;;;;;;;18.90;12.73;;;6.60;99.90;;;;;;5073330;28;20250;-47
2024/01/06 01:02:56;;;;;;;19.63;12.03;;;6.60;99.90;;;;;;5073587;28;20210;-47
2024/01/06 01:05:23;;;;;;;19.30;12.70;;;6.60;99.90;;;;;;5073861;28;20176;-48
2024/01/06 01:07:49;;;;;;;18.60;12.40;;;6.60;99.90;;;;;;5073500;28;20187;-47
2024/01/06 01:10:14;;;;;;;23.53;13.33;;;6.60;99.90;;;;;;5073710;28;20192;-48
2024/01/06 01:12:44;;;;;;;22.13;13.03;;;6.70;99.90;;;;;;5073511;28;20172;-47
2024/01/06 01:18:14;;;;;;;21.73;13.33;;;6.70;99.90;;;;;;5074197;28;20171;-48
2024/01/06 01:20:41;;;;;;;21.17;13.23;;;6.60;99.90;;;;;;5073656;28;20264;-47
2024/01/06 01:23:07;;;;;;;23.90;14.33;;;6.60;99.90;;;;;;5074478;28;20667;-47
2024/01/06 01:25:35;;;;;;;21.97;13.90;;;6.70;99.90;;;;;;5075194;28;20636;-47
2024/01/06 01:28:00;;;;;;;25.77;14.10;;;6.70;99.90;;;;;;5073966;28;20203;-46
2024/01/06 01:30:29;;;;;;;23.23;14.23;;;6.70;99.90;;;;;;5055583;28;20222;-47
2024/01/06 01:32:55;;;;;;;22.20;14.17;;;6.60;99.90;;;;;;5073356;28;20523;-48
2024/01/06 01:35:20;;;;;;;25.60;14.57;;;6.70;99.90;;;;;;5073608;28;20171;-48
2024/01/06 01:37:46;;;;;;;24.30;15.07;;;6.70;99.90;;;;;;5055409;28;20179;-47
2024/01/06 01:40:12;;;;;;;22.80;15.30;;;6.70;99.90;;;;;;5073252;28;20192;-48
2024/01/06 01:42:37;;;;;;;25.00;15.43;;;6.70;99.90;;;;;;5055599;28;20203;-46
2024/01/06 01:45:05;;;;;;;27.67;16.20;;;6.70;99.90;;;;;;5055629;28;20182;-46
2024/01/06 01:47:37;;;;;;;24.83;15.37;;;6.70;99.90;;;;;;5055219;28;20264;-47
2024/01/06 01:50:08;;;;;;;29.03;16.10;;;6.70;99.90;;;;;;5072153;28;20683;-48
2024/01/06 01:52:35;;;;;;;31.57;17.30;;;6.70;99.90;;;;;;5070649;28;20198;-47
2024/01/06 01:55:01;;;;;;;28.70;17.30;;;6.70;99.90;;;;;;5073257;28;20175;-48
2024/01/06 01:57:29;;;;;;;30.20;17.47;;;6.70;99.90;;;;;;5073253;28;20712;-48
2024/01/06 01:59:55;;;;;;;28.93;16.97;;;6.80;99.90;;;;;;5054571;28;20215;-48
2024/01/06 02:02:22;;;;;;;29.50;18.10;;;6.80;99.90;;;;;;5054264;28;20302;-48
2024/01/06 02:04:48;;;;;;;30.70;17.80;;;6.70;99.90;;;;;;5055112;28;20168;-46
2024/01/06 02:07:13;;;;;;;33.67;18.47;;;6.80;99.90;;;;;;5073051;28;20228;-47
2024/01/06 02:09:39;;;;;;;30.73;19.07;;;6.80;99.90;;;;;;5073113;28;20507;-46
2024/01/06 02:12:06;;;;;;;30.87;18.00;;;6.80;99.90;;;;;;5072884;28;20180;-47
2024/01/06 02:14:35;;;;;;;33.43;18.97;;;6.80;99.90;;;;;;5072814;28;20176;-45
2024/01/06 02:17:03;;;;;;;30.33;18.03;;;6.80;99.90;;;;;;5072800;28;20172;-46
2024/01/06 02:19:33;;;;;;;38.67;18.83;;;6.80;99.90;;;;;;5072629;28;20198;-47
2024/01/06 02:21:58;;;;;;;33.70;19.60;;;6.80;99.90;;;;;;5072940;28;20211;-46
2024/01/06 02:24:28;;;;;;;29.67;17.53;;;6.80;99.90;;;;;;5054943;28;20176;-46
2024/01/06 02:26:54;;;;;;;32.00;18.27;;;6.80;99.90;;;;;;5073054;28;20172;-46
2024/01/06 02:29:20;;;;;;;34.73;19.77;;;6.80;99.90;;;;;;5055166;28;20184;-47
2024/01/06 02:31:47;;;;;;;33.60;18.97;;;6.70;99.90;;;;;;5072864;28;20287;-48
2024/01/06 02:34:13;;;;;;;37.13;20.03;;;6.80;99.90;;;;;;5054863;28;20236;-48
2024/01/06 02:36:38;;;;;;;34.60;19.93;;;6.80;99.90;;;;;;5055083;28;20183;-48
2024/01/06 02:39:04;;;;;;;36.40;21.33;;;6.80;99.90;;;;;;5072903;28;20218;-46
2024/01/06 02:41:30;;;;;;;34.70;19.33;;;6.80;99.90;;;;;;5073109;28;20216;-47
2024/01/06 02:43:58;;;;;;;33.00;19.67;;;6.80;99.90;;;;;;5073753;28;20213;-47
2024/01/06 02:46:26;;;;;;;35.83;19.73;;;6.80;99.90;;;;;;5076080;28;20225;-47
2024/01/06 02:48:59;;;;;;;34.50;20.13;;;6.80;99.90;;;;;;5058142;28;20259;-46
2024/01/06 02:51:28;;;;;;;39.03;22.17;;;6.80;99.90;;;;;;5058023;28;20219;-46
2024/01/06 02:53:54;;;;;;;33.80;20.27;;;6.80;99.90;;;;;;5075901;28;20198;-47
2024/01/06 02:56:19;;;;;;;32.47;19.13;;;6.80;99.90;;;;;;5075959;28;20176;-45
2024/01/06 02:58:46;;;;;;;39.20;19.17;;;6.80;99.90;;;;;;5076096;28;20299;-48
2024/01/06 03:01:13;;;;;;;40.13;20.57;;;6.80;99.90;;;;;;5075737;28;20290;-48
2024/01/06 03:03:42;;;;;;;33.77;18.83;;;6.80;99.90;;;;;;5057949;28;20191;-47
2024/01/06 03:06:11;;;;;;;36.37;19.63;;;6.80;99.90;;;;;;5075869;28;20207;-45
2024/01/06 03:08:36;;;;;;;31.87;19.03;;;6.80;99.90;;;;;;5075868;28;20179;-46
2024/01/06 03:11:05;;;;;;;36.10;19.43;;;6.80;99.90;;;;;;5041168;28;20208;-48
2024/01/06 03:13:31;;;;;;;37.33;19.63;;;6.80;99.90;;;;;;5075807;28;20547;-48
2024/01/06 03:15:57;;;;;;;32.30;19.17;;;6.80;99.90;;;;;;5075678;28;20191;-47
2024/01/06 03:18:22;;;;;;;34.50;19.83;;;6.80;99.90;;;;;;5075917;28;20220;-47
2024/01/06 03:20:48;;;;;;;33.37;19.53;;;6.80;99.90;;;;;;5075380;28;20211;-47
2024/01/06 03:23:13;;;;;;;38.70;20.03;;;6.80;99.90;;;;;;5075441;28;20184;-48
2024/01/06 03:25:39;;;;;;;31.40;19.13;;;6.80;99.90;;;;;;5076018;28;20179;-47
2024/01/06 03:28:05;;;;;;;30.43;19.60;;;6.80;99.90;;;;;;5075361;28;20171;-47
2024/01/06 03:30:30;;;;;;;37.60;19.80;;;6.80;99.90;;;;;;5057719;28;20662;-48
2024/01/06 03:32:59;;;;;;;34.47;19.70;;;6.80;99.90;;;;;;5075258;28;20192;-46
2024/01/06 03:35:25;;;;;;;31.80;19.00;;;6.80;99.90;;;;;;5075640;28;20191;-48
2024/01/06 03:37:50;;;;;;;32.90;19.03;;;6.80;99.90;;;;;;5075356;28;20180;-47
2024/01/06 03:40:16;;;;;;;36.53;19.90;;;6.80;99.90;;;;;;5057503;28;20251;-49
2024/01/06 03:42:43;;;;;;;31.50;19.77;;;6.70;99.90;;;;;;5075411;28;20200;-46
2024/01/06 03:45:09;;;;;;;33.50;19.33;;;6.80;99.90;;;;;;5075252;28;20585;-47
2024/01/06 03:47:36;;;;;;;35.20;18.30;;;6.70;99.90;;;;;;5075659;28;20225;-47
2024/01/06 03:50:02;;;;;;;38.23;19.97;;;6.80;99.90;;;;;;5075009;28;20207;-47
2024/01/06 03:52:28;;;;;;;34.57;19.63;;;6.70;99.90;;;;;;5075649;28;20168;-47
2024/01/06 03:54:53;;;;;;;29.90;17.43;;;6.70;99.90;;;;;;5056440;28;20207;-46
2024/01/06 03:57:20;;;;;;;32.00;19.00;;;6.70;99.90;;;;;;5074534;28;20587;-47
2024/01/06 03:59:46;;;;;;;27.80;17.07;;;6.70;99.90;;;;;;5056938;28;20700;-46
2024/01/06 04:02:12;;;;;;;36.00;18.57;;;6.70;99.90;;;;;;5075714;28;20204;-48
2024/01/06 04:04:38;;;;;;;32.03;18.47;;;6.60;99.90;;;;;;5075204;28;20179;-46
2024/01/06 04:07:03;;;;;;;28.17;17.03;;;6.60;99.90;;;;;;5057674;28;20230;-46
2024/01/06 04:09:29;;;;;;;29.03;15.83;;;6.50;99.90;;;;;;5074536;28;20545;-48
2024/01/06 04:11:58;;;;;;;30.67;15.67;;;6.50;99.90;;;;;;5074539;28;20262;-48
2024/01/06 04:14:24;;;;;;;24.73;14.33;;;6.50;99.90;;;;;;5073672;28;20223;-47
2024/01/06 04:16:56;;;;;;;25.20;15.87;;;6.50;99.90;;;;;;5074340;28;20656;-47
2024/01/06 04:19:23;;;;;;;28.27;15.70;;;6.50;99.90;;;;;;5074576;28;20266;-48
2024/01/06 04:21:49;;;;;;;30.03;16.70;;;6.50;99.90;;;;;;5056285;28;20215;-47
2024/01/06 04:24:21;;;;;;;29.37;15.73;;;6.50;99.90;;;;;;5056907;28;20188;-46
2024/01/06 04:26:48;;;;;;;25.03;15.13;;;6.40;99.90;;;;;;5074519;28;20164;-46
2024/01/06 04:29:15;;;;;;;25.57;15.03;;;6.40;99.90;;;;;;5056536;28;20203;-46
2024/01/06 04:31:42;;;;;;;29.30;16.10;;;6.40;99.90;;;;;;5074032;28;20199;-47
2024/01/06 04:34:09;;;;;;;24.23;14.33;;;6.40;99.90;;;;;;5074333;28;20267;-46
2024/01/06 04:36:35;;;;;;;24.93;13.40;;;6.40;99.90;;;;;;5074265;28;20234;-47
2024/01/06 04:39:02;;;;;;;24.17;13.93;;;6.30;99.90;;;;;;5074016;28;20660;-46
2024/01/06 04:41:27;;;;;;;25.53;14.33;;;6.30;99.90;;;;;;5074074;28;20563;-46
2024/01/06 04:43:53;;;;;;;24.20;13.47;;;6.30;99.90;;;;;;5056018;28;20171;-48
2024/01/06 04:46:23;;;;;;;26.00;14.17;;;6.30;99.90;;;;;;5074105;28;20715;-47
2024/01/06 04:48:49;;;;;;;23.03;13.30;;;6.30;99.90;;;;;;5073959;28;20152;-46
2024/01/06 04:51:15;;;;;;;28.00;15.73;;;6.20;99.90;;;;;;5073728;28;20592;-46
2024/01/06 04:53:41;;;;;;;21.50;13.53;;;6.20;99.90;;;;;;5056333;28;20271;-46
2024/01/06 04:56:09;;;;;;;19.90;12.23;;;6.20;99.90;;;;;;5073943;28;20591;-47
2024/01/06 04:58:36;;;;;;;21.40;11.93;;;6.10;99.90;;;;;;5073953;28;20550;-48
2024/01/06 05:01:04;;;;;;;18.70;11.30;;;6.00;99.90;;;;;;5073894;28;20674;-46
2024/01/06 05:03:29;;;;;;;17.20;10.97;;;5.90;99.90;;;;;;5073742;28;20619;-47
2024/01/06 05:05:55;;;;;;;19.07;11.83;;;5.90;99.90;;;;;;5055494;28;20203;-47
2024/01/06 05:08:22;;;;;;;21.13;12.30;;;5.90;99.90;;;;;;5039084;28;20266;-47
2024/01/06 05:10:49;;;;;;;21.27;12.83;;;5.80;99.90;;;;;;5039051;28;20200;-47
2024/01/06 05:13:14;;;;;;;19.97;12.17;;;5.80;99.90;;;;;;5073435;28;20176;-48
2024/01/06 05:15:41;;;;;;;19.87;12.30;;;5.80;99.90;;;;;;5056203;28;20262;-45
2024/01/06 05:18:07;;;;;;;19.50;12.20;;;5.70;99.90;;;;;;5073398;28;20171;-48
2024/01/06 05:20:32;;;;;;;17.37;10.70;;;5.70;99.90;;;;;;5055634;28;20209;-47
2024/01/06 05:22:58;;;;;;;20.40;12.27;;;5.60;99.90;;;;;;5073580;28;20591;-46
2024/01/06 05:25:24;;;;;;;21.97;11.63;;;5.60;99.90;;;;;;5073575;28;20186;-47
2024/01/06 05:27:50;;;;;;;13.23;7.33;;;5.60;99.90;;;;;;5073260;28;20190;-46
2024/01/06 05:30:16;;;;;;;20.67;12.00;;;5.60;99.90;;;;;;5073396;28;20581;-47
2024/01/06 05:32:41;;;;;;;18.03;10.70;;;5.60;99.90;;;;;;5074021;28;20254;-48
2024/01/06 05:35:07;;;;;;;17.37;10.60;;;5.60;99.90;;;;;;5055838;28;20188;-48
2024/01/06 05:37:33;;;;;;;20.03;9.93;;;5.50;99.90;;;;;;5073194;28;20659;-48
2024/01/06 05:40:03;;;;;;;17.73;11.00;;;5.50;99.90;;;;;;5073155;28;20264;-48
2024/01/06 05:42:28;;;;;;;17.30;9.63;;;5.40;99.90;;;;;;5073157;28;20287;-48
2024/01/06 05:44:55;;;;;;;15.40;9.30;;;5.40;99.90;;;;;;5054973;28;20199;-47
2024/01/06 05:47:21;;;;;;;17.10;10.40;;;5.40;99.90;;;;;;5073636;28;20208;-48
2024/01/06 05:49:47;;;;;;;14.27;9.30;;;5.40;99.90;;;;;;5073114;28;20234;-48
2024/01/06 05:52:12;;;;;;;16.03;9.87;;;6.70;99.90;;;;;;5073322;28;20207;-47
2024/01/06 05:54:43;;;;;;;15.60;9.87;;;5.30;99.90;;;;;;5072954;28;20175;-48
2024/01/06 05:57:08;;;;;;;14.67;9.30;;;5.30;99.90;;;;;;5055300;28;20211;-47
2024/01/06 05:59:37;;;;;;;15.23;9.33;;;5.30;99.90;;;;;;5055154;28;20639;-47
2024/01/06 06:02:03;;;;;;;16.80;9.93;;;5.30;99.90;;;;;;5073022;28;20259;-48
2024/01/06 06:04:29;;;;;;;15.67;9.67;;;5.20;99.90;;;;;;5072701;28;20216;-47
2024/01/06 06:06:56;;;;;;;15.27;9.27;;;5.20;99.90;;;;;;5054998;28;20187;-46
2024/01/06 06:09:22;;;;;;;16.47;8.50;;;5.20;99.90;;;;;;5072929;28;20176;-47
2024/01/06 06:11:49;;;;;;;13.83;8.77;;;5.20;99.90;;;;;;5054979;28;20298;-47
2024/01/06 06:14:14;;;;;;;12.47;7.87;;;5.20;99.90;;;;;;5055829;28;20191;-48
2024/01/06 06:16:43;;;;;;;17.07;8.90;;;5.20;99.90;;;;;;5055042;28;20183;-47
2024/01/06 06:19:08;;;;;;;15.03;8.70;;;5.20;99.90;;;;;;5074231;28;20553;-47
2024/01/06 06:21:34;;;;;;;13.70;8.23;;;5.20;99.90;;;;;;5076766;28;20206;-47
2024/01/06 06:24:11;;;;;;;12.80;8.57;;;5.10;99.90;;;;;;5076611;28;20648;-47
2024/01/06 06:26:40;;;;;;;16.93;8.50;;;5.10;99.90;;;;;;5076784;28;20171;-46
2024/01/06 06:29:07;;;;;;;12.57;7.40;;;5.10;99.90;;;;;;5076792;28;20194;-45
2024/01/06 06:31:32;;;;;;;13.10;8.20;;;5.10;99.90;;;;;;5076914;28;20198;-48
2024/01/06 06:33:59;;;;;;;12.73;7.67;;;5.10;99.90;;;;;;5076346;28;20185;-47
2024/01/06 06:36:25;;;;;;;12.10;7.97;;;5.00;99.90;;;;;;5076691;28;20240;-47
2024/01/06 06:38:51;;;;;;;12.63;7.97;;;5.00;99.90;;;;;;5058801;28;20188;-47
2024/01/06 06:41:17;;;;;;;12.07;7.87;;;5.00;99.90;;;;;;5076345;28;20211;-47
2024/01/06 06:43:46;;;;;;;13.87;8.27;;;5.00;99.90;;;;;;5076525;28;20258;-47
2024/01/06 06:46:11;;;;;;;11.97;7.63;;;5.00;99.90;;;;;;5076185;28;20229;-47
2024/01/06 06:48:37;;;;;;;13.73;8.40;;;5.00;99.90;;;;;;5058444;28;20180;-46
2024/01/06 06:51:03;;;;;;;13.43;7.77;;;5.00;99.90;;;;;;5076169;28;20226;-46
2024/01/06 06:53:30;;;;;;;14.13;8.57;;;4.90;99.90;;;;;;5077011;28;20186;-47
2024/01/06 06:55:56;;;;;;;12.33;7.30;;;4.90;99.90;;;;;;5076686;28;20647;-47
2024/01/06 06:58:21;;;;;;;13.13;8.90;;;4.90;99.90;;;;;;5058011;28;20271;-47
2024/01/06 07:00:48;;;;;;;13.70;8.67;;;4.90;99.90;;;;;;5075987;28;20333;-46
2024/01/06 07:03:14;;;;;;;14.00;8.80;;;4.90;99.90;;;;;;5058052;28;20261;-47
2024/01/06 07:05:40;;;;;;;15.57;9.33;;;4.90;99.90;;;;;;5075806;28;20179;-48
2024/01/06 07:08:06;;;;;;;15.13;8.30;;;4.90;99.90;;;;;;5041273;28;20187;-47
2024/01/06 07:10:31;;;;;;;14.40;8.53;;;4.90;99.90;;;;;;5058321;28;20343;-46
2024/01/06 07:12:57;;;;;;;13.40;8.00;;;4.90;99.90;;;;;;5075905;28;20214;-46
2024/01/06 07:15:23;;;;;;;15.03;9.63;;;4.90;99.90;;;;;;5057876;28;20187;-47
2024/01/06 07:17:49;;;;;;;15.80;9.57;;;4.80;99.90;;;;;;5040956;28;20555;-48
2024/01/06 07:20:14;;;;;;;15.13;8.20;;;4.80;99.90;;;;;;5057753;28;20199;-47
2024/01/06 07:22:41;;;;;;;15.37;9.47;;;4.80;99.90;;;;;;5075477;28;20209;-47
2024/01/06 07:25:07;;;;;;;16.63;9.53;;;4.80;99.90;;;;;;5075715;28;20296;-47
2024/01/06 07:27:33;;;;;;;17.07;9.30;;;4.80;99.90;;;;;;5075383;28;20608;-48
2024/01/06 07:30:00;;;;;;;15.23;9.80;;;4.80;99.90;;;;;;5075013;28;20242;-47
2024/01/06 07:32:27;;;;;;;15.63;9.07;;;4.70;99.90;;;;;;5075800;28;20274;-47
2024/01/06 07:34:59;;;;;;;18.20;10.83;;;4.80;99.90;;;;;;5075248;28;20159;-46
2024/01/06 07:37:25;;;;;;;16.47;9.30;;;4.70;99.90;;;;;;5075165;28;20230;-48
2024/01/06 07:39:51;;;;;;;15.03;9.17;;;4.70;99.90;;;;;;5076089;28;20670;-47
2024/01/06 07:42:17;;;;;;;15.60;8.43;;;4.70;99.90;;;;;;5075820;28;20210;-47
2024/01/06 07:44:44;;;;;;;14.73;8.33;;;4.70;99.90;;;;;;5075717;28;20180;-47
2024/01/06 07:47:10;;;;;;;15.13;9.30;;;4.70;99.90;;;;;;5075429;28;20776;-47
2024/01/06 07:49:35;;;;;;;14.87;8.77;;;4.70;99.90;;;;;;5074825;28;20206;-46
2024/01/06 07:52:01;;;;;;;13.10;8.43;;;4.80;99.90;;;;;;5074825;28;20195;-47
2024/01/06 07:54:27;;;;;;;14.43;8.77;;;4.70;99.90;;;;;;5075208;28;20229;-47
2024/01/06 07:56:52;;;;;;;15.80;8.67;;;4.70;99.90;;;;;;5074807;28;20655;-48
2024/01/06 07:59:18;;;;;;;13.77;8.73;;;4.70;99.90;;;;;;5074668;28;20674;-47
2024/01/06 08:01:44;;;;;;;14.33;8.83;;;4.70;99.90;;;;;;5074527;28;20215;-48
2024/01/06 08:04:24;;;;;;;14.00;8.43;;;4.70;99.90;;;;;;5074772;28;20175;-47
2024/01/06 08:06:50;;;;;;;12.83;8.20;;;4.70;99.90;;;;;;5074670;28;20213;-49
2024/01/06 08:09:15;;;;;;;14.47;7.57;;;4.70;99.90;;;;;;5074580;28;20211;-49
2024/01/06 08:11:45;;;;;;;14.37;9.30;;;4.70;99.90;;;;;;5074703;28;20199;-46
2024/01/06 08:14:11;;;;;;;13.30;8.67;;;4.70;99.90;;;;;;5075012;28;20182;-46
2024/01/06 08:16:39;;;;;;;12.40;8.60;;;4.70;99.90;;;;;;5074504;28;20174;-47
2024/01/06 08:19:05;;;;;;;12.20;8.00;;;4.70;99.90;;;;;;5074276;28;20718;-47
2024/01/06 08:21:31;;;;;;;13.93;7.97;;;4.70;99.90;;;;;;5074100;28;20294;-46
2024/01/06 08:23:57;;;;;;;12.73;7.80;;;4.80;99.90;;;;;;5074770;28;20172;-48
2024/01/06 08:26:22;;;;;;;14.33;8.63;;;4.80;99.90;;;;;;5074540;28;20189;-47
2024/01/06 08:28:51;;;;;;;12.70;8.43;;;4.80;99.90;;;;;;5074038;28;20179;-47
2024/01/06 08:31:19;;;;;;;12.00;8.10;;;4.80;99.90;;;;;;5074418;28;20195;-47
2024/01/06 08:33:45;;;;;;;12.37;8.10;;;4.80;99.90;;;;;;5074412;28;20193;-46
2024/01/06 08:36:11;;;;;;;11.90;7.87;;;4.90;99.90;;;;;;5056229;28;20180;-46
2024/01/06 08:38:36;;;;;;;11.90;8.23;;;4.90;99.90;;;;;;5074262;28;20185;-47
2024/01/06 08:41:02;;;;;;;13.97;8.90;;;4.90;99.90;;;;;;5073379;28;20712;-48
2024/01/06 08:43:28;;;;;;;11.80;7.77;;;4.90;99.90;;;;;;5055901;28;20180;-47
2024/01/06 08:45:54;;;;;;;14.23;8.23;;;4.90;99.90;;;;;;5039332;28;20183;-46
2024/01/06 08:48:19;;;;;;;14.37;9.00;;;4.90;99.90;;;;;;5074007;28;20178;-46
2024/01/06 08:50:48;;;;;;;13.47;8.53;;;4.90;99.90;;;;;;5073786;28;20211;-47
2024/01/06 08:53:13;;;;;;;14.10;8.17;;;5.00;99.90;;;;;;5074014;28;20168;-47
2024/01/06 08:55:39;;;;;;;12.10;8.10;;;4.90;99.90;;;;;;5074013;28;20193;-47
2024/01/06 08:58:05;;;;;;;13.80;9.00;;;5.00;99.90;;;;;;5073707;28;20543;-48
2024/01/06 09:00:31;;;;;;;11.67;8.10;;;5.00;99.90;;;;;;5055623;28;20256;-47
2024/01/06 09:02:57;;;;;;;12.37;7.80;;;5.00;99.90;;;;;;5073797;28;20709;-47
2024/01/06 09:05:22;;;;;;;12.13;7.67;;;5.00;99.90;;;;;;5056078;28;20180;-47
2024/01/06 09:07:50;;;;;;;13.50;8.63;;;5.00;99.90;;;;;;5073566;28;20180;-48
2024/01/06 09:10:19;;;;;;;13.00;7.07;;;5.00;99.90;;;;;;5056246;28;20289;-47
2024/01/06 09:12:51;;;;;;;13.67;8.53;;;5.00;99.90;;;;;;5056372;28;20190;-47
2024/01/06 09:15:16;;;;;;;12.03;7.57;;;5.00;99.90;;;;;;5073713;28;20181;-48
2024/01/06 09:17:43;;;;;;;13.07;7.93;;;5.10;99.90;;;;;;5055658;28;20176;-47
2024/01/06 09:20:09;;;;;;;10.53;6.63;;;5.10;99.90;;;;;;5073590;28;20199;-46
2024/01/06 09:22:35;;;;;;;14.17;7.23;;;5.10;99.90;;;;;;5073225;28;20199;-47
2024/01/06 09:25:00;;;;;;;13.03;7.40;;;5.10;99.90;;;;;;5055502;28;20236;-47
2024/01/06 09:27:26;;;;;;;11.97;7.83;;;5.00;99.90;;;;;;5073545;28;20188;-47
2024/01/06 09:29:51;;;;;;;12.87;8.37;;;5.00;99.90;;;;;;5073250;28;20278;-46
2024/01/06 09:32:17;;;;;;;14.30;9.17;;;5.00;99.90;;;;;;5073953;28;20668;-46
2024/01/06 09:34:43;;;;;;;16.53;8.93;;;5.00;99.90;;;;;;5073304;28;20185;-46
2024/01/06 09:37:08;;;;;;;13.50;8.83;;;5.00;99.90;;;;;;5073535;28;20249;-48
2024/01/06 09:39:34;;;;;;;13.00;8.53;;;5.00;99.90;;;;;;5073147;28;20186;-48
2024/01/06 09:41:59;;;;;;;12.87;8.43;;;4.90;99.90;;;;;;5073638;28;20220;-47
2024/01/06 09:44:32;;;;;;;13.67;8.90;;;5.00;99.90;;;;;;5073436;28;20184;-48
2024/01/06 09:47:00;;;;;;;14.33;8.80;;;5.00;99.90;;;;;;5073178;28;20258;-46
2024/01/06 09:49:28;;;;;;;13.93;8.60;;;5.00;99.90;;;;;;5072994;28;20654;-48
2024/01/06 09:51:58;;;;;;;15.67;9.23;;;5.00;99.90;;;;;;5073230;28;20225;-47
2024/01/06 09:54:29;;;;;;;13.03;8.17;;;5.00;99.90;;;;;;5076794;28;20173;-47
2024/01/06 09:56:57;;;;;;;14.83;8.67;;;5.00;99.90;;;;;;5077259;28;20159;-48
2024/01/06 09:59:23;;;;;;;14.13;8.87;;;5.00;99.90;;;;;;5077092;28;20179;-47
2024/01/06 10:01:52;;;;;;;13.67;8.33;;;5.00;99.90;;;;;;5059195;28;20225;-48
2024/01/06 10:04:18;;;;;;;13.87;8.27;;;5.00;99.90;;;;;;5076970;28;20698;-48
2024/01/06 10:06:44;;;;;;;13.47;7.93;;;5.00;99.90;;;;;;5076938;28;20211;-48
2024/01/06 10:09:28;;;;;;;12.03;7.07;;;5.00;99.90;;;;;;5077162;28;20186;-48
2024/01/06 10:11:59;;;;;;;13.63;7.77;;;5.00;99.90;;;;;;5077033;28;20240;-46
2024/01/06 10:14:25;;;;;;;12.50;7.27;;;5.00;99.90;;;;;;5076864;28;20186;-48
2024/01/06 10:16:58;;;;;;;13.47;7.90;;;5.10;99.90;;;;;;5076932;28;20152;-46
2024/01/06 10:19:30;;;;;;;11.93;7.07;;;5.10;99.90;;;;;;5076959;28;20172;-47
2024/01/06 10:22:00;;;;;;;9.73;6.30;;;5.10;99.90;;;;;;5076798;28;20211;-48
2024/01/06 10:24:25;;;;;;;11.23;6.50;;;5.10;99.90;;;;;;5076625;28;20212;-47
2024/01/06 10:26:51;;;;;;;12.07;7.27;;;5.10;99.90;;;;;;5076616;28;20563;-49
2024/01/06 10:29:17;;;;;;;13.57;7.73;;;5.10;99.90;;;;;;5076724;28;20712;-46
2024/01/06 10:31:43;;;;;;;14.33;7.13;;;5.00;99.90;;;;;;5076332;28;20250;-46
2024/01/06 10:34:23;;;;;;;14.23;8.87;;;5.00;99.90;;;;;;5058909;28;20278;-45
2024/01/06 10:36:53;;;;;;;12.43;7.87;;;5.00;99.90;;;;;;5058446;28;20190;-47
2024/01/06 10:39:21;;;;;;;13.50;8.63;;;5.00;99.90;;;;;;5059204;28;20160;-48
2024/01/06 10:41:52;;;;;;;12.93;7.53;;;5.00;99.90;;;;;;5058678;28;20226;-46
2024/01/06 10:44:19;;;;;;;12.63;7.83;;;5.00;99.90;;;;;;5076316;28;20250;-47
2024/01/06 10:46:55;;;;;;;12.57;7.90;;;5.00;99.90;;;;;;5076550;28;20167;-47
2024/01/06 10:49:23;;;;;;;12.30;7.83;;;4.90;99.90;;;;;;5058452;28;20179;-46
2024/01/06 10:51:50;;;;;;;12.67;8.27;;;5.00;99.90;;;;;;5058510;28;20309;-47
2024/01/06 10:54:24;;;;;;;12.53;8.27;;;4.90;99.90;;;;;;5058360;28;20179;-46
2024/01/06 10:56:53;;;;;;;11.90;8.17;;;5.00;99.90;;;;;;5076070;28;20252;-46
2024/01/06 10:59:22;;;;;;;14.00;9.60;;;4.90;99.90;;;;;;5075746;28;20175;-45
2024/01/06 11:01:52;;;;;;;16.43;9.90;;;4.90;99.90;;;;;;5058378;28;20211;-46
2024/01/06 11:04:20;;;;;;;13.53;9.07;;;4.80;99.90;;;;;;5075108;28;20178;-45
2024/01/06 11:06:47;;;;;;;15.90;8.77;;;4.80;99.90;;;;;;5058143;28;20172;-47
2024/01/06 11:09:22;;;;;;;12.70;8.40;;;4.80;99.90;;;;;;5076412;28;20229;-48
2024/01/06 11:11:48;;;;;;;12.30;8.27;;;4.70;99.90;;;;;;5058830;28;20281;-45
2024/01/06 11:14:21;;;;;;;11.40;7.53;;;4.70;99.90;;;;;;5058535;28;20186;-47
2024/01/06 11:16:50;;;;;;;13.13;7.23;;;4.70;99.90;;;;;;5076422;28;20171;-47
2024/01/06 11:19:35;;;;;;;12.90;7.70;;;4.60;99.90;;;;;;5075868;28;20179;-47
2024/01/06 11:22:20;;;;;;;13.60;7.73;;;4.60;99.90;;;;;;5075621;28;20190;-46
2024/01/06 11:24:52;;;;;;;11.60;7.47;;;4.60;99.90;;;;;;5075474;28;20313;-47
2024/01/06 11:27:30;;;;;;;13.33;7.47;;;4.60;99.90;;;;;;5057999;28;20546;-47
2024/01/06 11:30:01;;;;;;;11.07;6.73;;;4.50;99.90;;;;;;5058022;28;20206;-47
2024/01/06 11:32:38;;;;;;;12.33;7.50;;;4.50;99.90;;;;;;5075622;28;20198;-48
2024/01/06 11:35:12;;;;;;;14.13;6.67;;;4.50;99.90;;;;;;5075471;28;20248;-47
2024/01/06 11:37:41;;;;;;;15.90;9.20;;;4.50;99.90;;;;;;5057349;28;20187;-46
2024/01/06 11:40:23;;;;;;;16.73;9.57;;;4.50;99.90;;;;;;5075130;28;20745;-46
2024/01/06 11:43:09;;;;;;;14.77;9.70;;;4.50;99.90;;;;;;5075340;28;20183;-46
2024/01/06 11:45:37;;;;;;;15.13;9.60;;;4.40;99.90;;;;;;5057630;28;20188;-46
2024/01/06 11:48:12;;;;;;;20.70;12.27;;;4.40;99.90;;;;;;5057610;28;20222;-46
2024/01/06 11:50:44;;;;;;;21.20;11.90;;;4.40;99.90;;;;;;5057652;28;20194;-47
2024/01/06 11:53:10;;;;;;;18.63;10.83;;;4.40;99.90;;;;;;5074818;28;20236;-47
2024/01/06 11:55:39;;;;;;;16.33;9.70;;;4.40;99.90;;;;;;5057398;28;20184;-47
2024/01/06 11:58:05;;;;;;;16.07;8.33;;;4.30;99.90;;;;;;5057538;28;20262;-46
2024/01/06 12:00:38;;;;;;;15.73;9.07;;;4.30;99.90;;;;;;5057247;28;20730;-47
2024/01/06 12:03:05;;;;;;;17.63;9.37;;;4.30;99.90;;;;;;5074592;28;20194;-49
2024/01/06 12:05:32;;;;;;;16.43;10.03;;;4.30;99.90;;;;;;5074732;28;20171;-47
2024/01/06 12:08:06;;;;;;;17.23;8.90;;;4.20;99.90;;;;;;5056898;28;20192;-46
2024/01/06 12:10:33;;;;;;;16.20;8.90;;;4.30;99.90;;;;;;5057304;28;20197;-48
2024/01/06 12:12:59;;;;;;;18.87;8.97;;;4.30;99.90;;;;;;5074772;28;20259;-49
2024/01/06 12:15:29;;;;;;;16.23;10.03;;;4.30;99.90;;;;;;5074823;28;20193;-47
2024/01/06 12:17:56;;;;;;;17.97;11.07;;;4.20;99.90;;;;;;5073736;28;20718;-48
2024/01/06 12:20:26;;;;;;;18.43;10.20;;;4.20;99.90;;;;;;5074980;28;20195;-47
2024/01/06 12:22:53;;;;;;;21.73;11.57;;;4.20;99.90;;;;;;5056831;28;20211;-48
2024/01/06 12:25:20;;;;;;;21.53;11.27;;;4.20;99.90;;;;;;5074444;28;20171;-47
2024/01/06 12:27:58;;;;;;;13.37;7.37;;;4.20;99.90;;;;;;5056279;28;20196;-47
2024/01/06 12:30:24;;;;;;;20.77;11.53;;;4.10;99.90;;;;;;5074226;28;20198;-48
2024/01/06 12:32:56;;;;;;;17.90;10.40;;;4.10;99.90;;;;;;5074361;28;20217;-48
2024/01/06 12:35:23;;;;;;;23.17;11.33;;;4.10;99.90;;;;;;5056931;28;20285;-48
2024/01/06 12:38:11;;;;;;;19.37;10.70;;;4.10;99.90;;;;;;5132626;27;20565;-47
2024/01/06 12:40:40;;;;;;;19.47;10.67;;;4.10;99.90;;;;;;5131834;28;20248;-47
2024/01/06 12:43:09;;;;;;;16.90;9.70;;;4.00;99.90;;;;;;5132177;27;20176;-48
2024/01/06 12:45:34;;;;;;;16.10;9.87;;;3.90;99.90;;;;;;5132056;28;20234;-49
2024/01/06 12:48:02;;;;;;;15.73;9.80;;;4.00;99.90;;;;;;5132120;27;20176;-45